createdAt,value
2018-08-21T00:00:43.989Z,21.85
2018-08-21T00:01:44.176Z,21.88
2018-08-21T00:02:44.612Z,21.81
2018-08-21T00:03:44.096Z,21.81
2018-08-21T00:04:44.712Z,21.82
2018-08-21T00:05:44.220Z,21.82
2018-08-21T00:06:44.259Z,21.85
2018-08-21T00:07:44.312Z,21.78
2018-08-21T00:08:44.363Z,21.79
2018-08-21T00:09:44.940Z,21.82
2018-08-21T00:10:44.434Z,21.83
2018-08-21T00:11:44.735Z,21.75
2018-08-21T00:12:44.542Z,21.83
2018-08-21T00:13:44.591Z,21.85
2018-08-21T00:14:45.167Z,21.83
2018-08-21T00:15:44.688Z,21.90
2018-08-21T00:16:44.704Z,21.81
2018-08-21T00:17:45.476Z,21.81
2018-08-21T00:18:44.814Z,21.88
2018-08-21T00:19:44.865Z,21.78
2018-08-21T00:20:44.950Z,21.60
2018-08-21T00:21:44.946Z,21.60
2018-08-21T00:22:45.009Z,21.50
2018-08-21T00:23:45.187Z,21.46
2018-08-21T00:24:45.094Z,21.39
2018-08-21T00:25:45.128Z,21.39
2018-08-21T00:26:45.183Z,21.48
2018-08-21T00:27:45.215Z,21.45
2018-08-21T00:28:45.283Z,21.42
2018-08-21T00:29:45.312Z,21.53
2018-08-21T00:30:45.374Z,21.36
2018-08-21T00:31:45.415Z,21.46
2018-08-21T00:32:45.450Z,21.45
2018-08-21T00:33:45.554Z,21.48
2018-08-21T00:34:45.686Z,21.50
2018-08-21T00:35:45.629Z,21.50
2018-08-21T00:36:45.627Z,21.41
2018-08-21T00:37:45.689Z,21.38
2018-08-21T00:38:45.715Z,21.35
2018-08-21T00:39:45.793Z,21.35
2018-08-21T00:40:45.801Z,21.27
2018-08-21T00:41:45.961Z,21.11
2018-08-21T00:42:45.920Z,21.19
2018-08-21T00:43:45.957Z,21.06
2018-08-21T00:44:46.047Z,21.06
2018-08-21T00:45:46.059Z,21.09
2018-08-21T00:46:46.099Z,21.06
2018-08-21T00:47:46.143Z,21.05
2018-08-21T00:48:46.199Z,21.02
2018-08-21T00:49:46.233Z,20.98
2018-08-21T00:50:46.321Z,20.96
2018-08-21T00:51:46.345Z,20.99
2018-08-21T00:52:46.382Z,20.91
2018-08-21T00:53:46.444Z,20.95
2018-08-21T00:54:46.450Z,20.93
2018-08-21T00:55:46.524Z,20.79
2018-08-21T00:56:46.541Z,20.83
2018-08-21T00:57:46.696Z,20.83
2018-08-21T00:58:46.653Z,20.81
2018-08-21T00:59:46.748Z,20.80
2018-08-21T01:00:46.738Z,20.84
2018-08-21T01:01:46.790Z,20.86
2018-08-21T01:02:46.835Z,20.84
2018-08-21T01:03:46.884Z,20.76
2018-08-21T01:04:47.075Z,20.79
2018-08-21T01:05:46.986Z,20.83
2018-08-21T01:06:47.003Z,20.68
2018-08-21T01:07:47.036Z,20.71
2018-08-21T01:08:47.150Z,20.69
2018-08-21T01:09:47.145Z,20.69
2018-08-21T01:10:47.185Z,20.65
2018-08-21T01:11:47.244Z,20.72
2018-08-21T01:12:47.311Z,20.72
2018-08-21T01:13:47.329Z,20.74
2018-08-21T01:14:47.458Z,20.66
2018-08-21T01:15:47.468Z,20.68
2018-08-21T01:16:47.472Z,20.76
2018-08-21T01:17:47.514Z,20.79
2018-08-21T01:18:47.563Z,20.79
2018-08-21T01:19:47.609Z,20.71
2018-08-21T01:20:47.801Z,20.81
2018-08-21T01:21:47.689Z,20.77
2018-08-21T01:22:47.751Z,20.71
2018-08-21T01:23:47.808Z,20.68
2018-08-21T01:24:47.828Z,20.69
2018-08-21T01:25:47.904Z,20.71
2018-08-21T01:26:48.088Z,20.66
2018-08-21T01:27:47.980Z,20.62
2018-08-21T01:28:48.009Z,20.56
2018-08-21T01:29:48.070Z,20.56
2018-08-21T01:30:48.096Z,20.56
2018-08-21T01:31:48.165Z,20.54
2018-08-21T01:32:48.215Z,20.58
2018-08-21T01:33:48.259Z,20.53
2018-08-21T01:34:48.281Z,20.56
2018-08-21T01:35:48.363Z,20.69
2018-08-21T01:36:48.393Z,20.65
2018-08-21T01:37:48.528Z,20.61
2018-08-21T01:38:48.501Z,20.56
2018-08-21T01:39:48.523Z,20.58
2018-08-21T01:40:48.565Z,20.51
2018-08-21T01:41:48.633Z,20.54
2018-08-21T01:42:48.667Z,20.51
2018-08-21T01:43:48.738Z,20.54
2018-08-21T01:44:48.881Z,20.54
2018-08-21T01:45:48.817Z,20.54
2018-08-21T01:46:48.853Z,20.59
2018-08-21T01:47:48.887Z,20.47
2018-08-21T01:48:48.940Z,20.41
2018-08-21T01:49:48.987Z,20.42
2018-08-21T01:50:49.104Z,20.47
2018-08-21T01:51:49.077Z,20.41
2018-08-21T01:52:49.116Z,20.39
2018-08-21T01:53:49.201Z,20.35
2018-08-21T01:54:49.211Z,20.43
2018-08-21T01:55:49.246Z,20.39
2018-08-21T01:56:49.381Z,20.35
2018-08-21T01:57:49.382Z,20.46
2018-08-21T01:58:49.396Z,20.35
2018-08-21T01:59:49.442Z,20.46
2018-08-21T02:00:49.470Z,20.33
2018-08-21T02:01:49.636Z,20.42
2018-08-21T02:02:49.818Z,20.46
2018-08-21T02:03:49.668Z,20.35
2018-08-21T02:04:49.654Z,20.38
2018-08-21T02:05:49.768Z,20.35
2018-08-21T02:06:49.809Z,20.34
2018-08-21T02:07:49.880Z,20.31
2018-08-21T02:08:49.853Z,20.25
2018-08-21T02:09:49.946Z,20.28
2018-08-21T02:10:49.931Z,20.25
2018-08-21T02:11:50.037Z,20.09
2018-08-21T02:12:50.278Z,20.15
2018-08-21T02:13:50.151Z,20.10
2018-08-21T02:14:50.127Z,20.10
2018-08-21T02:15:50.155Z,19.98
2018-08-21T02:16:50.272Z,20.06
2018-08-21T02:17:50.364Z,20.09
2018-08-21T02:18:50.306Z,20.02
2018-08-21T02:19:50.428Z,20.02
2018-08-21T02:20:50.409Z,19.97
2018-08-21T02:21:50.437Z,19.87
2018-08-21T02:22:50.709Z,19.91
2018-08-21T02:23:50.636Z,19.91
2018-08-21T02:24:50.570Z,19.87
2018-08-21T02:25:50.678Z,19.84
2018-08-21T02:26:50.716Z,19.91
2018-08-21T02:27:50.843Z,19.94
2018-08-21T02:28:51.019Z,19.88
2018-08-21T02:29:50.828Z,19.83
2018-08-21T02:30:50.902Z,19.83
2018-08-21T02:31:50.890Z,19.83
2018-08-21T02:32:50.964Z,19.76
2018-08-21T02:33:51.095Z,19.69
2018-08-21T02:34:51.027Z,19.68
2018-08-21T02:35:51.158Z,19.68
2018-08-21T02:36:51.112Z,19.68
2018-08-21T02:37:51.149Z,19.53
2018-08-21T02:38:51.259Z,19.50
2018-08-21T02:39:51.292Z,19.57
2018-08-21T02:40:51.286Z,19.43
2018-08-21T02:41:51.312Z,19.48
2018-08-21T02:42:51.374Z,19.43
2018-08-21T02:43:51.576Z,19.43
2018-08-21T02:44:51.563Z,19.43
2018-08-21T02:45:51.533Z,19.35
2018-08-21T02:46:51.541Z,19.48
2018-08-21T02:47:51.637Z,19.38
2018-08-21T02:48:51.643Z,19.43
2018-08-21T02:49:51.734Z,19.24
2018-08-21T02:50:51.743Z,19.32
2018-08-21T02:51:51.848Z,19.39
2018-08-21T02:52:51.827Z,19.42
2018-08-21T02:53:51.857Z,19.39
2018-08-21T02:54:52.010Z,19.38
2018-08-21T02:55:51.949Z,19.38
2018-08-21T02:56:52.039Z,19.32
2018-08-21T02:57:52.045Z,19.32
2018-08-21T02:58:52.111Z,19.14
2018-08-21T02:59:52.172Z,19.18
2018-08-21T03:00:52.330Z,19.17
2018-08-21T03:01:52.245Z,19.14
2018-08-21T03:02:52.263Z,19.14
2018-08-21T03:03:52.315Z,19.18
2018-08-21T03:04:52.348Z,19.24
2018-08-21T03:05:52.387Z,19.31
2018-08-21T03:07:52.506Z,19.31
2018-08-21T03:08:52.527Z,19.38
2018-08-21T03:09:52.582Z,19.31
2018-08-21T03:10:52.630Z,19.36
2018-08-21T03:11:52.726Z,19.31
2018-08-21T03:13:52.775Z,19.39
2018-08-21T03:14:52.819Z,19.25
2018-08-21T03:15:52.905Z,19.36
2018-08-21T03:16:53.040Z,19.39
2018-08-21T03:17:52.937Z,19.35
2018-08-21T03:19:53.038Z,19.35
2018-08-21T03:20:53.082Z,19.28
2018-08-21T03:21:53.105Z,19.32
2018-08-21T03:22:53.166Z,19.32
2018-08-21T03:23:53.189Z,19.33
2018-08-21T03:24:53.258Z,19.23
2018-08-21T03:25:53.345Z,19.23
2018-08-21T03:26:53.328Z,19.20
2018-08-21T03:27:53.426Z,19.24
2018-08-21T03:28:53.441Z,19.18
2018-08-21T03:29:53.506Z,19.20
2018-08-21T03:30:53.538Z,19.18
2018-08-21T03:31:53.568Z,19.18
2018-08-21T03:32:53.645Z,19.10
2018-08-21T03:33:53.650Z,19.13
2018-08-21T03:35:53.749Z,19.14
2018-08-21T03:36:53.781Z,19.17
2018-08-21T03:37:53.833Z,19.11
2018-08-21T03:38:53.878Z,19.08
2018-08-21T03:39:54.070Z,18.97
2018-08-21T03:40:53.950Z,18.97
2018-08-21T03:41:54.026Z,18.97
2018-08-21T03:42:54.060Z,18.90
2018-08-21T03:43:54.102Z,18.80
2018-08-21T03:45:55.835Z,18.84
2018-08-21T03:46:54.238Z,18.80
2018-08-21T03:47:54.260Z,18.80
2018-08-21T03:48:54.360Z,18.76
2018-08-21T03:49:54.363Z,18.83
2018-08-21T03:50:54.420Z,18.79
2018-08-21T03:51:54.590Z,18.65
2018-08-21T03:52:54.491Z,18.65
2018-08-21T03:53:54.571Z,18.68
2018-08-21T03:54:54.588Z,18.64
2018-08-21T03:55:54.674Z,18.61
2018-08-21T03:56:54.668Z,18.61
2018-08-21T03:58:54.929Z,18.55
2018-08-21T03:59:54.822Z,18.65
2018-08-21T04:00:54.833Z,18.57
2018-08-21T04:02:54.932Z,18.58
2018-08-21T04:03:55.037Z,18.59
2018-08-21T04:04:55.060Z,18.57
2018-08-21T04:07:55.149Z,18.47
2018-08-21T04:08:55.337Z,18.47
2018-08-21T04:09:55.260Z,18.54
2018-08-21T04:10:55.306Z,18.44
2018-08-21T04:11:55.339Z,18.39
2018-08-21T04:12:55.354Z,18.49
2018-08-21T04:14:55.477Z,18.39
2018-08-21T04:15:55.508Z,18.42
2018-08-21T04:16:55.553Z,18.37
2018-08-21T04:17:55.580Z,18.27
2018-08-21T04:18:55.673Z,18.24
2018-08-21T04:19:55.695Z,18.27
2018-08-21T04:20:55.895Z,18.22
2018-08-21T04:21:55.788Z,18.19
2018-08-21T04:23:55.845Z,18.19
2018-08-21T04:24:55.919Z,18.13
2018-08-21T04:25:55.948Z,18.34
2018-08-21T04:26:56.158Z,18.15
2018-08-21T04:27:56.061Z,18.07
2018-08-21T04:28:56.079Z,18.13
2018-08-21T04:29:56.122Z,18.04
2018-08-21T04:30:56.178Z,18.12
2018-08-21T04:32:56.314Z,18.09
2018-08-21T04:33:56.313Z,18.07
2018-08-21T04:34:56.357Z,18.10
2018-08-21T04:35:56.398Z,18.07
2018-08-21T04:36:56.451Z,18.00
2018-08-21T04:37:56.515Z,18.06
2018-08-21T04:38:56.529Z,17.94
2018-08-21T04:39:56.567Z,17.89
2018-08-21T04:41:56.673Z,17.95
2018-08-21T04:43:56.748Z,18.06
2018-08-21T04:44:56.791Z,18.04
2018-08-21T04:45:56.820Z,18.03
2018-08-21T04:46:56.892Z,18.04
2018-08-21T04:47:58.723Z,18.02
2018-08-21T04:48:58.633Z,18.06
2018-08-21T04:50:57.065Z,18.10
2018-08-21T04:51:57.100Z,18.09
2018-08-21T04:53:57.205Z,18.12
2018-08-21T04:54:57.391Z,18.13
2018-08-21T04:55:57.290Z,18.19
2018-08-21T04:56:57.340Z,18.12
2018-08-21T04:57:57.371Z,18.15
2018-08-21T04:58:57.442Z,18.17
2018-08-21T04:59:57.429Z,18.12
2018-08-21T05:00:57.484Z,18.18
2018-08-21T05:01:57.543Z,18.19
2018-08-21T05:03:57.641Z,18.17
2018-08-21T05:04:57.820Z,18.09
2018-08-21T05:05:59.221Z,18.15
2018-08-21T05:06:57.754Z,18.02
2018-08-21T05:07:57.845Z,18.10
2018-08-21T05:08:57.874Z,18.10
2018-08-21T05:09:57.881Z,18.09
2018-08-21T05:10:57.938Z,18.12
2018-08-21T05:12:58.031Z,18.02
2018-08-21T05:13:58.056Z,18.04
2018-08-21T05:14:58.090Z,17.95
2018-08-21T05:16:58.194Z,17.92
2018-08-21T05:17:58.413Z,17.87
2018-08-21T05:19:58.408Z,17.99
2018-08-21T05:45:59.453Z,17.51
2018-08-21T05:46:59.482Z,17.46
2018-08-21T05:47:59.538Z,17.48
2018-08-21T05:49:59.621Z,17.59
2018-08-21T05:50:59.700Z,17.51
2018-08-21T05:51:59.708Z,17.59
2018-08-21T05:52:59.761Z,17.57
2018-08-21T05:53:59.805Z,17.51
2018-08-21T05:54:59.840Z,17.57
2018-08-21T05:56:00.048Z,17.59
2018-08-21T05:57:01.536Z,17.66
2018-08-21T05:57:59.968Z,17.59
2018-08-21T05:59:00.060Z,17.59
2018-08-21T06:00:00.065Z,17.59
2018-08-21T06:02:00.180Z,17.67
2018-08-21T06:03:00.327Z,17.76
2018-08-21T06:04:00.382Z,17.95
2018-08-21T06:05:00.274Z,18.02
2018-08-21T06:06:00.331Z,17.97
2018-08-21T06:07:00.352Z,17.99
2018-08-21T06:08:00.506Z,18.04
2018-08-21T06:10:00.596Z,17.95
2018-08-21T06:11:00.544Z,17.84
2018-08-21T06:13:00.605Z,17.74
2018-08-21T06:14:00.715Z,17.70
2018-08-21T06:15:00.839Z,17.67
2018-08-21T06:16:00.796Z,17.71
2018-08-21T06:17:00.811Z,17.78
2018-08-21T06:18:00.864Z,17.84
2018-08-21T06:19:00.929Z,17.82
2018-08-21T06:20:00.933Z,17.84
2018-08-21T06:21:01.124Z,17.76
2018-08-21T06:22:01.169Z,17.79
2018-08-21T06:23:01.071Z,17.74
2018-08-21T06:25:01.159Z,17.85
2018-08-21T06:26:01.194Z,17.81
2018-08-21T06:27:01.401Z,17.94
2018-08-21T06:28:01.265Z,17.91
2018-08-21T06:29:01.316Z,17.88
2018-08-21T06:31:01.424Z,17.95
2018-08-21T06:32:01.615Z,17.94
2018-08-21T06:33:01.501Z,17.92
2018-08-21T06:34:01.700Z,17.92
2018-08-21T06:35:01.600Z,17.95
2018-08-21T06:36:01.684Z,18.00
2018-08-21T06:37:01.659Z,18.00
2018-08-21T06:38:01.703Z,18.00
2018-08-21T06:39:03.257Z,18.02
2018-08-21T06:40:01.805Z,18.03
2018-08-21T06:41:01.861Z,17.99
2018-08-21T06:42:01.897Z,17.99
2018-08-21T06:43:01.902Z,18.00
2018-08-21T06:44:02.013Z,17.92
2018-08-21T06:45:02.155Z,18.00
2018-08-21T06:46:02.057Z,18.02
2018-08-21T06:47:02.100Z,18.00
2018-08-21T06:48:02.134Z,17.95
2018-08-21T06:49:02.181Z,18.00
2018-08-21T06:50:02.207Z,18.00
2018-08-21T06:51:02.256Z,17.99
2018-08-21T06:52:02.318Z,17.92
2018-08-21T06:54:02.434Z,17.92
2018-08-21T06:55:02.444Z,17.91
2018-08-21T06:56:02.493Z,17.92
2018-08-21T06:58:02.569Z,17.81
2018-08-21T06:59:02.618Z,17.89
2018-08-21T07:00:02.864Z,17.84
2018-08-21T07:01:02.859Z,17.85
2018-08-21T07:02:02.738Z,17.81
2018-08-21T07:04:02.853Z,17.82
2018-08-21T07:05:02.923Z,17.81
2018-08-21T07:06:02.929Z,17.84
2018-08-21T07:08:03.024Z,17.85
2018-08-21T07:09:03.039Z,17.88
2018-08-21T07:10:03.084Z,17.79
2018-08-21T07:11:03.141Z,17.78
2018-08-21T07:13:03.275Z,17.82
2018-08-21T07:14:03.303Z,17.79
2018-08-21T07:15:03.278Z,17.73
2018-08-21T07:16:03.362Z,17.78
2018-08-21T07:18:03.443Z,17.79
2018-08-21T07:19:03.518Z,17.79
2018-08-21T07:20:03.530Z,17.79
2018-08-21T07:22:03.605Z,17.76
2018-08-21T07:23:03.698Z,17.89
2018-08-21T07:24:03.847Z,18.00
2018-08-21T07:25:03.733Z,17.97
2018-08-21T07:26:03.798Z,18.04
2018-08-21T07:27:03.809Z,18.06
2018-08-21T07:28:03.848Z,18.12
2018-08-21T07:29:03.970Z,18.07
2018-08-21T07:30:03.992Z,18.10
2018-08-21T07:32:04.047Z,18.04
2018-08-21T07:33:04.084Z,18.06
2018-08-21T07:34:04.111Z,17.92
2018-08-21T07:35:04.320Z,17.89
2018-08-21T07:36:04.220Z,18.00
2018-08-21T07:37:04.237Z,17.94
2018-08-21T07:38:04.298Z,17.89
2018-08-21T07:39:04.386Z,17.76
2018-08-21T07:40:04.366Z,18.00
2018-08-21T07:42:04.483Z,18.00
2018-08-21T07:43:04.525Z,17.94
2018-08-21T07:44:04.574Z,18.09
2018-08-21T07:45:04.594Z,18.13
2018-08-21T07:46:04.636Z,18.13
2018-08-21T07:47:06.295Z,18.07
2018-08-21T07:49:04.781Z,18.07
2018-08-21T07:51:04.879Z,18.03
2018-08-21T07:52:04.912Z,18.07
2018-08-21T07:54:04.974Z,18.12
2018-08-21T07:55:05.036Z,18.07
2018-08-21T07:56:05.065Z,18.10
2018-08-21T07:57:05.117Z,18.07
2018-08-21T07:58:05.235Z,18.09
2018-08-21T07:59:05.349Z,18.17
2018-08-21T08:00:05.244Z,18.07
2018-08-21T08:01:05.290Z,18.21
2018-08-21T08:02:05.344Z,18.06
2018-08-21T08:03:05.412Z,18.09
2018-08-21T08:04:05.765Z,18.04
2018-08-21T08:06:05.484Z,18.03
2018-08-21T08:07:05.543Z,18.15
2018-08-21T08:08:05.595Z,18.09
2018-08-21T08:09:05.702Z,17.95
2018-08-21T08:10:05.666Z,18.00
2018-08-21T08:11:05.871Z,18.02
2018-08-21T08:12:05.779Z,18.03
2018-08-21T08:13:05.810Z,18.03
2018-08-21T08:14:05.985Z,17.95
2018-08-21T08:15:05.901Z,17.91
2018-08-21T08:16:05.978Z,17.91
2018-08-21T08:17:07.674Z,18.00
2018-08-21T08:18:06.040Z,18.09
2018-08-21T08:19:06.205Z,18.13
2018-08-21T08:20:06.197Z,18.09
2018-08-21T08:21:06.158Z,18.13
2018-08-21T08:22:06.245Z,18.07
2018-08-21T08:23:06.318Z,18.06
2018-08-21T08:24:06.294Z,17.99
2018-08-21T08:25:06.316Z,17.97
2018-08-21T08:26:06.382Z,17.99
2018-08-21T08:27:06.454Z,17.94
2018-08-21T08:28:06.543Z,18.12
2018-08-21T08:29:06.600Z,18.02
2018-08-21T08:31:06.567Z,18.12
2018-08-21T08:32:06.628Z,18.12
2018-08-21T08:33:06.714Z,18.07
2018-08-21T08:34:06.722Z,18.17
2018-08-21T08:35:06.765Z,18.28
2018-08-21T08:36:06.799Z,18.28
2018-08-21T08:37:06.822Z,18.25
2018-08-21T08:41:07.015Z,18.19
2018-08-21T08:42:07.076Z,18.13
2018-08-21T08:44:07.173Z,18.10
2018-08-21T08:45:07.202Z,18.13
2018-08-21T08:46:07.248Z,18.10
2018-08-21T08:48:07.309Z,18.18
2018-08-21T08:49:07.410Z,18.15
2018-08-21T08:50:07.436Z,18.21
2018-08-21T08:51:07.454Z,18.18
2018-08-21T08:52:07.530Z,18.15
2018-08-21T08:54:07.579Z,18.13
2018-08-21T08:55:07.776Z,18.07
2018-08-21T08:56:07.706Z,18.17
2018-08-21T08:57:07.743Z,18.19
2018-08-21T08:58:07.746Z,18.10
2018-08-21T09:01:07.867Z,18.07
2018-08-21T09:03:07.963Z,18.07
2018-08-21T09:04:07.997Z,18.13
2018-08-21T09:05:08.151Z,18.03
2018-08-21T09:06:08.096Z,18.04
2018-08-21T09:07:08.120Z,17.99
2018-08-21T09:08:08.172Z,17.97
2018-08-21T09:09:08.218Z,17.95
2018-08-21T09:10:08.279Z,17.99
2018-08-21T09:11:08.304Z,17.76
2018-08-21T09:14:08.431Z,17.92
2018-08-21T09:15:08.484Z,17.97
2018-08-21T09:16:08.566Z,17.88
2018-08-21T09:17:08.569Z,18.03
2018-08-21T09:18:08.608Z,17.87
2018-08-21T09:19:08.652Z,17.85
2018-08-21T09:20:08.700Z,17.79
2018-08-21T09:21:08.737Z,17.95
2018-08-21T09:22:08.925Z,17.95
2018-08-21T09:23:08.823Z,17.94
2018-08-21T09:24:08.868Z,17.91
2018-08-21T09:25:08.947Z,18.00
2018-08-21T09:26:08.977Z,18.03
2018-08-21T09:27:08.999Z,17.94
2018-08-21T09:28:09.025Z,18.02
2018-08-21T09:29:09.084Z,17.97
2018-08-21T09:30:09.131Z,17.94
2018-08-21T09:32:09.216Z,17.89
2018-08-21T09:33:09.287Z,17.87
2018-08-21T09:36:09.374Z,17.92
2018-08-21T09:38:09.529Z,18.02
2018-08-21T09:39:09.492Z,18.03
2018-08-21T09:40:11.041Z,17.94
2018-08-21T09:41:09.590Z,17.95
2018-08-21T09:42:09.622Z,17.94
2018-08-21T09:44:09.707Z,17.92
2018-08-21T09:46:09.792Z,17.95
2018-08-21T09:47:09.847Z,17.99
2018-08-21T09:48:09.931Z,18.13
2018-08-21T09:49:09.916Z,18.13
2018-08-21T09:50:09.977Z,18.10
2018-08-21T09:51:10.099Z,18.00
2018-08-21T09:52:10.064Z,18.21
2018-08-21T09:53:10.126Z,18.10
2018-08-21T09:54:10.151Z,18.19
2018-08-21T09:56:10.228Z,18.27
2018-08-21T09:57:10.267Z,18.27
2018-08-21T10:00:10.413Z,18.42
2018-08-21T10:01:10.461Z,18.42
2018-08-21T10:02:10.639Z,18.44
2018-08-21T10:03:10.544Z,18.50
2018-08-21T10:04:10.615Z,18.47
2018-08-21T10:05:10.600Z,18.57
2018-08-21T10:06:10.657Z,18.58
2018-08-21T10:07:10.676Z,18.52
2018-08-21T10:09:10.796Z,18.58
2018-08-21T10:10:10.844Z,18.65
2018-08-21T10:11:10.884Z,18.62
2018-08-21T10:12:10.963Z,18.74
2018-08-21T10:13:10.968Z,18.80
2018-08-21T10:14:10.997Z,18.67
2018-08-21T10:15:11.056Z,18.82
2018-08-21T10:16:11.080Z,18.86
2018-08-21T10:17:11.134Z,18.84
2018-08-21T10:19:11.255Z,19.33
2018-08-21T10:20:11.277Z,19.39
2018-08-21T10:21:11.347Z,19.53
2018-08-21T10:22:11.334Z,19.83
2018-08-21T10:24:11.433Z,19.87
2018-08-21T10:25:13.146Z,19.70
2018-08-21T10:26:11.532Z,19.83
2018-08-21T10:27:11.567Z,19.87
2018-08-21T10:28:11.634Z,19.80
2018-08-21T10:29:11.672Z,19.70
2018-08-21T10:30:11.710Z,19.63
2018-08-21T10:33:11.889Z,19.46
2018-08-21T10:34:11.895Z,19.51
2018-08-21T10:35:11.979Z,19.47
2018-08-21T10:36:11.961Z,19.43
2018-08-21T10:37:12.031Z,19.38
2018-08-21T10:39:12.097Z,19.17
2018-08-21T10:40:12.159Z,19.11
2018-08-21T10:41:12.194Z,18.94
2018-08-21T10:42:12.234Z,18.94
2018-08-21T10:43:12.360Z,18.90
2018-08-21T10:44:12.383Z,18.83
2018-08-21T10:45:12.433Z,18.84
2018-08-21T10:46:12.433Z,18.76
2018-08-21T10:47:12.466Z,18.83
2018-08-21T10:48:12.520Z,18.72
2018-08-21T10:49:12.548Z,18.74
2018-08-21T10:50:12.611Z,18.79
2018-08-21T10:51:12.645Z,18.73
2018-08-21T10:52:12.677Z,18.74
2018-08-21T10:53:12.717Z,18.87
2018-08-21T10:55:12.817Z,19.84
2018-08-21T10:56:12.911Z,20.46
2018-08-21T10:57:12.911Z,21.06
2018-08-21T10:58:13.099Z,21.48
2018-08-21T10:59:13.000Z,21.63
2018-08-21T11:00:13.024Z,21.92
2018-08-21T11:01:13.090Z,22.19
2018-08-21T11:02:13.149Z,22.68
2018-08-21T11:03:13.324Z,22.92
2018-08-21T11:04:13.247Z,23.19
2018-08-21T11:06:13.311Z,23.76
2018-08-21T11:07:13.383Z,23.83
2018-08-21T11:08:13.428Z,24.16
2018-08-21T11:09:13.455Z,24.26
2018-08-21T11:10:13.642Z,24.41
2018-08-21T11:11:13.568Z,24.68
2018-08-21T11:12:13.599Z,24.95
2018-08-21T11:14:13.720Z,25.35
2018-08-21T11:15:15.428Z,25.20
2018-08-21T11:16:13.817Z,25.17
2018-08-21T11:17:13.866Z,25.34
2018-08-21T11:18:13.955Z,25.38
2018-08-21T11:19:13.966Z,25.42
2018-08-21T11:20:13.986Z,25.32
2018-08-21T11:21:14.106Z,25.16
2018-08-21T11:22:14.103Z,25.15
2018-08-21T11:23:14.159Z,25.13
2018-08-21T11:24:14.299Z,25.38
2018-08-21T11:25:14.259Z,25.37
2018-08-21T11:26:14.368Z,25.10
2018-08-21T11:27:14.366Z,25.22
2018-08-21T11:28:14.423Z,25.13
2018-08-21T11:29:14.469Z,25.30
2018-08-21T11:31:14.562Z,25.09
2018-08-21T11:33:16.260Z,25.57
2018-08-21T11:34:14.750Z,25.71
2018-08-21T11:35:14.765Z,26.04
2018-08-21T11:36:14.816Z,26.20
2018-08-21T11:37:14.859Z,26.40
2018-08-21T11:38:14.921Z,26.72
2018-08-21T11:39:14.960Z,27.32
2018-08-21T11:40:15.021Z,27.41
2018-08-21T11:42:15.113Z,27.70
2018-08-21T11:43:15.170Z,27.61
2018-08-21T11:44:15.223Z,27.61
2018-08-21T11:45:15.286Z,27.43
2018-08-21T11:46:15.318Z,27.57
2018-08-21T11:47:15.386Z,27.41
2018-08-21T11:48:15.494Z,27.46
2018-08-21T11:49:15.480Z,27.35
2018-08-21T11:50:15.558Z,27.59
2018-08-21T11:51:15.587Z,27.51
2018-08-21T11:52:15.617Z,27.77
2018-08-21T11:53:15.699Z,27.84
2018-08-21T11:54:15.759Z,27.46
2018-08-21T11:55:17.450Z,27.38
2018-08-21T11:56:15.854Z,27.70
2018-08-21T11:57:15.894Z,28.29
2018-08-21T11:58:15.960Z,28.44
2018-08-21T11:59:16.039Z,28.21
2018-08-21T12:00:16.070Z,27.76
2018-08-21T12:02:16.207Z,28.22
2018-08-21T12:03:16.243Z,28.17
2018-08-21T12:04:16.255Z,28.29
2018-08-21T12:05:16.329Z,28.54
2018-08-21T12:06:16.389Z,28.90
2018-08-21T12:07:18.105Z,28.26
2018-08-21T12:08:16.480Z,27.71
2018-08-21T12:09:16.555Z,27.43
2018-08-21T12:10:16.584Z,27.70
2018-08-21T12:12:16.703Z,28.54
2018-08-21T12:13:16.773Z,28.13
2018-08-21T12:14:16.821Z,28.19
2018-08-21T12:16:16.929Z,27.71
2018-08-21T12:17:16.966Z,27.17
2018-08-21T12:18:17.016Z,27.41
2018-08-21T12:19:17.113Z,28.13
2018-08-21T12:20:17.141Z,28.47
2018-08-21T12:22:17.241Z,29.07
2018-08-21T12:23:18.809Z,29.11
2018-08-21T12:24:17.362Z,29.22
2018-08-21T12:25:17.393Z,29.00
2018-08-21T12:26:17.496Z,28.65
2018-08-21T12:28:17.571Z,29.19
2018-08-21T12:29:17.782Z,29.25
2018-08-21T12:30:17.689Z,29.44
2018-08-21T12:31:17.749Z,29.82
2018-08-21T12:32:17.773Z,30.11
2018-08-21T12:33:17.842Z,30.11
2018-08-21T12:34:18.052Z,29.99
2018-08-21T12:35:17.954Z,30.62
2018-08-21T12:36:18.006Z,30.76
2018-08-21T12:37:18.070Z,30.64
2018-08-21T12:38:18.145Z,30.80
2018-08-21T12:39:18.158Z,30.91
2018-08-21T12:40:18.224Z,31.28
2018-08-21T12:41:19.833Z,31.67
2018-08-21T12:43:18.399Z,31.36
2018-08-21T12:44:18.453Z,31.09
2018-08-21T12:45:18.525Z,30.94
2018-08-21T12:46:18.569Z,29.82
2018-08-21T12:48:18.709Z,29.56
2018-08-21T12:49:18.723Z,29.79
2018-08-21T12:50:18.829Z,30.05
2018-08-21T12:52:18.899Z,29.19
2018-08-21T12:54:19.018Z,29.37
2018-08-21T12:55:19.063Z,29.47
2018-08-21T12:56:19.125Z,29.75
2018-08-21T12:57:19.202Z,29.90
2018-08-21T12:58:19.217Z,30.11
2018-08-21T12:59:19.263Z,30.26
2018-08-21T13:01:19.378Z,29.75
2018-08-21T13:02:19.481Z,29.40
2018-08-21T13:03:19.525Z,29.34
2018-08-21T13:04:19.597Z,29.75
2018-08-21T13:06:19.826Z,29.77
2018-08-21T13:07:19.764Z,30.09
2018-08-21T13:08:19.833Z,30.33
2018-08-21T13:09:19.828Z,30.78
2018-08-21T13:10:19.919Z,31.26
2018-08-21T13:11:19.990Z,31.04
2018-08-21T13:12:20.021Z,31.28
2018-08-21T13:14:20.088Z,30.47
2018-08-21T13:15:20.156Z,30.36
2018-08-21T13:16:20.229Z,30.50
2018-08-21T13:17:20.333Z,30.61
2018-08-21T13:18:20.339Z,30.74
2018-08-21T13:19:20.410Z,31.04
2018-08-21T13:20:20.467Z,30.19
2018-08-21T13:21:20.565Z,30.33
2018-08-21T13:22:20.563Z,30.59
2018-08-21T13:23:20.711Z,30.65
2018-08-21T13:24:20.820Z,30.74
2018-08-21T13:27:20.856Z,31.75
2018-08-21T13:28:20.960Z,31.42
2018-08-21T13:29:21.013Z,31.20
2018-08-21T13:30:21.037Z,31.17
2018-08-21T13:31:21.086Z,31.23
2018-08-21T13:34:21.287Z,31.28
2018-08-21T13:35:21.311Z,31.13
2018-08-21T13:36:21.378Z,30.99
2018-08-21T13:37:21.428Z,30.75
2018-08-21T13:38:21.492Z,30.59
2018-08-21T13:39:21.522Z,30.86
2018-08-21T13:40:21.587Z,30.94
2018-08-21T13:43:21.758Z,31.43
2018-08-21T13:44:21.843Z,31.48
2018-08-21T13:45:21.896Z,31.36
2018-08-21T13:46:21.949Z,31.42
2018-08-21T13:47:22.016Z,31.30
2018-08-21T13:48:22.249Z,31.36
2018-08-21T13:49:22.121Z,31.33
2018-08-21T13:50:22.170Z,31.45
2018-08-21T13:51:22.240Z,31.57
2018-08-21T13:52:22.306Z,31.54
2018-08-21T13:53:22.335Z,31.28
2018-08-21T13:54:22.416Z,31.50
2018-08-21T13:55:22.479Z,31.87
2018-08-21T13:56:22.514Z,32.02
2018-08-21T13:59:22.718Z,31.24
2018-08-21T14:01:22.798Z,31.45
2018-08-21T14:02:22.869Z,31.70
2018-08-21T14:03:22.910Z,31.68
2018-08-21T14:04:24.651Z,31.20
2018-08-21T14:05:23.048Z,31.18
2018-08-21T14:06:23.094Z,31.21
2018-08-21T14:07:23.156Z,31.30
2018-08-21T14:09:23.275Z,30.99
2018-08-21T14:10:23.485Z,31.21
2018-08-21T14:11:23.392Z,31.12
2018-08-21T14:12:23.435Z,31.58
2018-08-21T14:13:23.498Z,31.54
2018-08-21T14:16:23.662Z,31.93
2018-08-21T14:17:23.750Z,31.93
2018-08-21T14:19:23.874Z,32.32
2018-08-21T14:21:23.974Z,32.14
2018-08-21T14:22:24.183Z,32.10
2018-08-21T14:23:24.176Z,31.85
2018-08-21T14:24:24.151Z,32.03
2018-08-21T14:25:24.204Z,32.02
2018-08-21T14:26:24.305Z,32.13
2018-08-21T14:27:24.310Z,32.42
2018-08-21T14:28:24.532Z,32.42
2018-08-21T14:29:24.459Z,32.37
2018-08-21T14:30:24.553Z,32.48
2018-08-21T14:32:24.628Z,32.59
2018-08-21T14:33:26.332Z,32.73
2018-08-21T14:35:24.807Z,32.86
2018-08-21T14:36:24.844Z,32.62
2018-08-21T14:37:24.920Z,32.58
2018-08-21T14:38:24.973Z,32.52
2018-08-21T14:39:25.034Z,32.52
2018-08-21T14:41:25.153Z,31.54
2018-08-21T14:42:25.228Z,31.64
2018-08-21T14:44:25.347Z,31.87
2018-08-21T14:45:25.456Z,32.11
2018-08-21T14:47:25.609Z,32.18
2018-08-21T14:49:25.617Z,32.05
2018-08-21T14:50:25.720Z,32.21
2018-08-21T14:51:25.725Z,32.18
2018-08-21T14:52:27.295Z,32.37
2018-08-21T14:53:25.865Z,32.67
2018-08-21T14:55:26.012Z,33.14
2018-08-21T14:56:26.035Z,33.14
2018-08-21T14:57:26.120Z,33.43
2018-08-21T14:58:26.158Z,33.53
2018-08-21T14:59:26.263Z,33.53
2018-08-21T15:00:26.268Z,33.55
2018-08-21T15:01:26.394Z,33.68
2018-08-21T15:02:26.416Z,33.85
2018-08-21T15:03:26.517Z,33.89